CYGL

La Grande Rivière Airport

La Grande Rivière, Quebec, Canada
METAR CYGL 240300Z 24004KT 15SM BKN039 M00/M01 A3043 RMK SC6 SLP321
Observed Flight Rules
Sep-24 @ 03:00 UTC (48 minutes ago) Visual Flight Rules
Wind Visibility Clouds
240° at 4 knots 15 miles
  • Broken at 3,900' AGL
Temperatures Readings
Current 0°C / 32°F
Dewpoint -1°C / 30°F
Humidity 93%
Altimeter 30.43" Hg
Pressure 1032.1 hPa
Elevation 195
METAR CYGL 240300Z 24004KT 15SM BKN039 M00/M01 A3043 RMK SC6 SLP321
Observed Flight Rules
Sep-24 @ 03:00 UTC
(48 minutes ago)
VFR
Wind Visibility
240° at 4 knots 15 miles
Clouds
  • Broken at 3,900' AGL
Temperature Dewpoint
0°C / 32°F -1°C / 30°F
Humidity Altimeter Pressure
93% 30.43" Hg 1032.1 hPa